sensor_id;sensor_type;location;lat;lon;timestamp;temperature;humidity
18024;DHT22;9137;50.960;3.118;2022-07-29T00:01:52;18.70;84.40
18024;DHT22;9137;50.960;3.118;2022-07-29T00:04:20;18.70;84.90
18024;DHT22;9137;50.960;3.118;2022-07-29T00:06:47;18.70;84.90
18024;DHT22;9137;50.960;3.118;2022-07-29T00:09:14;18.60;84.70
18024;DHT22;9137;50.960;3.118;2022-07-29T00:11:41;18.60;85.00
18024;DHT22;9137;50.960;3.118;2022-07-29T00:14:08;18.60;85.00
18024;DHT22;9137;50.960;3.118;2022-07-29T00:16:35;18.50;85.40
18024;DHT22;9137;50.960;3.118;2022-07-29T00:19:02;18.40;86.00
18024;DHT22;9137;50.960;3.118;2022-07-29T00:21:31;18.40;86.40
18024;DHT22;9137;50.960;3.118;2022-07-29T00:23:57;18.30;86.50
18024;DHT22;9137;50.960;3.118;2022-07-29T00:26:24;18.20;86.50
18024;DHT22;9137;50.960;3.118;2022-07-29T00:28:53;18.20;87.60
18024;DHT22;9137;50.960;3.118;2022-07-29T00:31:20;18.20;87.20
18024;DHT22;9137;50.960;3.118;2022-07-29T00:33:47;18.10;88.30
18024;DHT22;9137;50.960;3.118;2022-07-29T00:36:14;18.10;88.10
18024;DHT22;9137;50.960;3.118;2022-07-29T00:38:41;18.00;88.10
18024;DHT22;9137;50.960;3.118;2022-07-29T00:41:10;17.90;88.30
18024;DHT22;9137;50.960;3.118;2022-07-29T00:43:37;17.90;88.70
18024;DHT22;9137;50.960;3.118;2022-07-29T00:46:04;17.80;89.00
18024;DHT22;9137;50.960;3.118;2022-07-29T00:48:31;17.80;89.20
18024;DHT22;9137;50.960;3.118;2022-07-29T00:51:00;17.80;89.30
18024;DHT22;9137;50.960;3.118;2022-07-29T00:53:28;17.70;89.70
18024;DHT22;9137;50.960;3.118;2022-07-29T00:55:57;17.70;90.00
18024;DHT22;9137;50.960;3.118;2022-07-29T00:58:26;17.60;90.10
18024;DHT22;9137;50.960;3.118;2022-07-29T01:00:53;17.60;90.30
18024;DHT22;9137;50.960;3.118;2022-07-29T01:03:20;17.60;90.40
18024;DHT22;9137;50.960;3.118;2022-07-29T01:05:47;17.60;90.50
18024;DHT22;9137;50.960;3.118;2022-07-29T01:08:15;17.50;90.50
18024;DHT22;9137;50.960;3.118;2022-07-29T01:10:44;17.50;90.60
18024;DHT22;9137;50.960;3.118;2022-07-29T01:13:14;17.40;90.70
18024;DHT22;9137;50.960;3.118;2022-07-29T01:15:45;17.30;90.80
18024;DHT22;9137;50.960;3.118;2022-07-29T01:18:17;17.30;91.20
18024;DHT22;9137;50.960;3.118;2022-07-29T01:21:04;17.20;91.40
18024;DHT22;9137;50.960;3.118;2022-07-29T01:23:57;17.20;91.30
18024;DHT22;9137;50.960;3.118;2022-07-29T01:26:37;17.10;91.40
18024;DHT22;9137;50.960;3.118;2022-07-29T01:29:12;17.10;91.50
18024;DHT22;9137;50.960;3.118;2022-07-29T01:31:45;17.10;91.70
18024;DHT22;9137;50.960;3.118;2022-07-29T01:34:18;17.10;91.70
18024;DHT22;9137;50.960;3.118;2022-07-29T01:36:51;17.00;91.80
18024;DHT22;9137;50.960;3.118;2022-07-29T01:39:26;17.00;92.00
18024;DHT22;9137;50.960;3.118;2022-07-29T01:42:11;16.90;91.90
18024;DHT22;9137;50.960;3.118;2022-07-29T01:44:46;16.90;92.20
18024;DHT22;9137;50.960;3.118;2022-07-29T01:47:19;16.80;92.30
18024;DHT22;9137;50.960;3.118;2022-07-29T01:49:49;16.80;92.50
18024;DHT22;9137;50.960;3.118;2022-07-29T01:52:21;16.70;92.40
18024;DHT22;9137;50.960;3.118;2022-07-29T01:54:54;16.70;92.60
18024;DHT22;9137;50.960;3.118;2022-07-29T01:57:26;16.70;92.80
18024;DHT22;9137;50.960;3.118;2022-07-29T01:59:57;16.60;92.80
18024;DHT22;9137;50.960;3.118;2022-07-29T02:02:26;16.60;92.90
18024;DHT22;9137;50.960;3.118;2022-07-29T02:04:54;16.50;93.00
18024;DHT22;9137;50.960;3.118;2022-07-29T02:07:23;16.50;93.10
18024;DHT22;9137;50.960;3.118;2022-07-29T02:09:53;16.50;93.20
18024;DHT22;9137;50.960;3.118;2022-07-29T02:12:20;16.40;93.30
18024;DHT22;9137;50.960;3.118;2022-07-29T02:14:52;16.40;93.30
18024;DHT22;9137;50.960;3.118;2022-07-29T02:17:26;16.40;93.50
18024;DHT22;9137;50.960;3.118;2022-07-29T02:19:57;16.40;93.60
18024;DHT22;9137;50.960;3.118;2022-07-29T02:22:28;16.30;93.50
18024;DHT22;9137;50.960;3.118;2022-07-29T02:24:55;16.30;93.70
18024;DHT22;9137;50.960;3.118;2022-07-29T02:27:24;16.30;93.70
18024;DHT22;9137;50.960;3.118;2022-07-29T02:29:53;16.20;93.80
18024;DHT22;9137;50.960;3.118;2022-07-29T02:32:24;16.20;93.90
18024;DHT22;9137;50.960;3.118;2022-07-29T02:34:51;16.20;94.00
18024;DHT22;9137;50.960;3.118;2022-07-29T02:37:19;16.10;94.10
18024;DHT22;9137;50.960;3.118;2022-07-29T02:39:48;16.10;94.10
18024;DHT22;9137;50.960;3.118;2022-07-29T02:42:16;16.10;94.20
18024;DHT22;9137;50.960;3.118;2022-07-29T02:44:44;16.10;94.40
18024;DHT22;9137;50.960;3.118;2022-07-29T02:47:15;16.00;94.40
18024;DHT22;9137;50.960;3.118;2022-07-29T02:49:48;16.00;94.50
18024;DHT22;9137;50.960;3.118;2022-07-29T02:52:21;16.00;94.50
18024;DHT22;9137;50.960;3.118;2022-07-29T02:54:54;16.00;94.60
18024;DHT22;9137;50.960;3.118;2022-07-29T02:57:29;15.90;94.50
18024;DHT22;9137;50.960;3.118;2022-07-29T02:59:58;15.90;94.60
18024;DHT22;9137;50.960;3.118;2022-07-29T03:02:33;15.90;94.60
18024;DHT22;9137;50.960;3.118;2022-07-29T03:05:02;15.90;94.70
18024;DHT22;9137;50.960;3.118;2022-07-29T03:07:30;15.80;94.90
18024;DHT22;9137;50.960;3.118;2022-07-29T03:09:58;15.80;95.00
18024;DHT22;9137;50.960;3.118;2022-07-29T03:12:25;15.80;95.00
18024;DHT22;9137;50.960;3.118;2022-07-29T03:14:54;15.70;94.90
18024;DHT22;9137;50.960;3.118;2022-07-29T03:17:22;15.70;95.10
18024;DHT22;9137;50.960;3.118;2022-07-29T03:19:50;15.70;95.20
18024;DHT22;9137;50.960;3.118;2022-07-29T03:22:18;15.70;95.20
18024;DHT22;9137;50.960;3.118;2022-07-29T03:24:46;15.60;95.30
18024;DHT22;9137;50.960;3.118;2022-07-29T03:27:13;15.60;95.30
18024;DHT22;9137;50.960;3.118;2022-07-29T03:29:40;15.60;95.30
18024;DHT22;9137;50.960;3.118;2022-07-29T03:32:07;15.60;95.40
18024;DHT22;9137;50.960;3.118;2022-07-29T03:34:34;15.60;95.40
18024;DHT22;9137;50.960;3.118;2022-07-29T03:37:01;15.60;95.40
18024;DHT22;9137;50.960;3.118;2022-07-29T03:39:33;15.50;95.50
18024;DHT22;9137;50.960;3.118;2022-07-29T03:42:02;15.50;95.70
18024;DHT22;9137;50.960;3.118;2022-07-29T03:44:32;15.50;95.70
18024;DHT22;9137;50.960;3.118;2022-07-29T03:47:00;15.50;95.80
18024;DHT22;9137;50.960;3.118;2022-07-29T03:49:29;15.40;95.70
18024;DHT22;9137;50.960;3.118;2022-07-29T03:51:57;15.40;95.80
18024;DHT22;9137;50.960;3.118;2022-07-29T03:54:25;15.40;95.90
18024;DHT22;9137;50.960;3.118;2022-07-29T03:56:54;15.40;95.90
18024;DHT22;9137;50.960;3.118;2022-07-29T03:59:24;15.30;95.90
18024;DHT22;9137;50.960;3.118;2022-07-29T04:01:51;15.30;96.00
18024;DHT22;9137;50.960;3.118;2022-07-29T04:04:19;15.30;96.00
18024;DHT22;9137;50.960;3.118;2022-07-29T04:06:46;15.30;96.10
18024;DHT22;9137;50.960;3.118;2022-07-29T04:09:13;15.30;96.20
18024;DHT22;9137;50.960;3.118;2022-07-29T04:11:41;15.20;96.20
18024;DHT22;9137;50.960;3.118;2022-07-29T04:14:09;15.20;96.20
18024;DHT22;9137;50.960;3.118;2022-07-29T04:16:36;15.20;96.30
18024;DHT22;9137;50.960;3.118;2022-07-29T04:19:03;15.20;96.30
18024;DHT22;9137;50.960;3.118;2022-07-29T04:21:30;15.20;96.30
18024;DHT22;9137;50.960;3.118;2022-07-29T04:23:57;15.10;96.30
18024;DHT22;9137;50.960;3.118;2022-07-29T04:26:24;15.10;96.40
18024;DHT22;9137;50.960;3.118;2022-07-29T04:28:51;15.10;96.60
18024;DHT22;9137;50.960;3.118;2022-07-29T04:31:19;15.10;96.60
18024;DHT22;9137;50.960;3.118;2022-07-29T04:33:46;15.00;96.70
18024;DHT22;9137;50.960;3.118;2022-07-29T04:36:13;15.00;96.90
18024;DHT22;9137;50.960;3.118;2022-07-29T04:38:40;15.00;97.10
18024;DHT22;9137;50.960;3.118;2022-07-29T04:41:07;15.00;97.10
18024;DHT22;9137;50.960;3.118;2022-07-29T04:43:34;15.00;97.10
18024;DHT22;9137;50.960;3.118;2022-07-29T04:46:01;15.00;97.10
18024;DHT22;9137;50.960;3.118;2022-07-29T04:48:30;15.00;97.10
18024;DHT22;9137;50.960;3.118;2022-07-29T04:50:57;15.00;97.30
18024;DHT22;9137;50.960;3.118;2022-07-29T04:53:24;15.10;97.40
18024;DHT22;9137;50.960;3.118;2022-07-29T04:55:51;15.10;97.30
18024;DHT22;9137;50.960;3.118;2022-07-29T04:58:18;15.10;97.40
18024;DHT22;9137;50.960;3.118;2022-07-29T05:00:45;15.10;97.50
18024;DHT22;9137;50.960;3.118;2022-07-29T05:03:12;15.10;97.50
18024;DHT22;9137;50.960;3.118;2022-07-29T05:05:40;15.20;97.60
18024;DHT22;9137;50.960;3.118;2022-07-29T05:08:08;15.30;97.70
18024;DHT22;9137;50.960;3.118;2022-07-29T05:10:35;15.30;97.70
18024;DHT22;9137;50.960;3.118;2022-07-29T05:13:04;15.40;97.70
18024;DHT22;9137;50.960;3.118;2022-07-29T05:15:31;15.50;97.60
18024;DHT22;9137;50.960;3.118;2022-07-29T05:17:58;15.60;97.40
18024;DHT22;9137;50.960;3.118;2022-07-29T05:20:25;15.70;97.30
18024;DHT22;9137;50.960;3.118;2022-07-29T05:22:55;15.80;97.10
18024;DHT22;9137;50.960;3.118;2022-07-29T05:25:23;15.90;97.30
18024;DHT22;9137;50.960;3.118;2022-07-29T05:27:50;16.00;96.90
18024;DHT22;9137;50.960;3.118;2022-07-29T05:30:17;16.10;96.70
18024;DHT22;9137;50.960;3.118;2022-07-29T05:32:44;16.20;96.50
18024;DHT22;9137;50.960;3.118;2022-07-29T05:35:12;16.20;96.40
18024;DHT22;9137;50.960;3.118;2022-07-29T05:37:40;16.30;96.50
18024;DHT22;9137;50.960;3.118;2022-07-29T05:40:09;16.30;96.40
18024;DHT22;9137;50.960;3.118;2022-07-29T05:42:36;16.30;96.30
18024;DHT22;9137;50.960;3.118;2022-07-29T05:45:03;16.30;96.10
18024;DHT22;9137;50.960;3.118;2022-07-29T05:47:30;16.30;96.10
18024;DHT22;9137;50.960;3.118;2022-07-29T05:49:57;16.40;96.20
18024;DHT22;9137;50.960;3.118;2022-07-29T05:52:24;16.40;96.10
18024;DHT22;9137;50.960;3.118;2022-07-29T05:54:51;16.40;96.10
18024;DHT22;9137;50.960;3.118;2022-07-29T05:57:21;16.40;96.20
18024;DHT22;9137;50.960;3.118;2022-07-29T05:59:49;16.40;96.10
18024;DHT22;9137;50.960;3.118;2022-07-29T06:02:16;16.50;96.20
18024;DHT22;9137;50.960;3.118;2022-07-29T06:04:43;16.50;96.20
18024;DHT22;9137;50.960;3.118;2022-07-29T06:07:10;16.50;96.00
18024;DHT22;9137;50.960;3.118;2022-07-29T06:09:37;16.50;96.10
18024;DHT22;9137;50.960;3.118;2022-07-29T06:12:05;16.50;96.30
18024;DHT22;9137;50.960;3.118;2022-07-29T06:14:34;16.60;96.20
18024;DHT22;9137;50.960;3.118;2022-07-29T06:17:03;16.60;96.30
18024;DHT22;9137;50.960;3.118;2022-07-29T06:19:30;16.60;96.20
18024;DHT22;9137;50.960;3.118;2022-07-29T06:21:57;16.60;96.20
18024;DHT22;9137;50.960;3.118;2022-07-29T06:24:24;16.60;96.00
18024;DHT22;9137;50.960;3.118;2022-07-29T06:26:51;16.60;95.80
18024;DHT22;9137;50.960;3.118;2022-07-29T06:29:18;16.70;95.90
18024;DHT22;9137;50.960;3.118;2022-07-29T06:31:46;16.70;96.00
18024;DHT22;9137;50.960;3.118;2022-07-29T06:34:13;16.70;96.10
18024;DHT22;9137;50.960;3.118;2022-07-29T06:36:40;16.80;96.20
18024;DHT22;9137;50.960;3.118;2022-07-29T06:39:08;16.80;96.50
18024;DHT22;9137;50.960;3.118;2022-07-29T06:41:35;16.90;96.10
18024;DHT22;9137;50.960;3.118;2022-07-29T06:44:02;17.00;95.90
18024;DHT22;9137;50.960;3.118;2022-07-29T06:46:30;17.10;95.80
18024;DHT22;9137;50.960;3.118;2022-07-29T06:48:58;17.20;95.60
18024;DHT22;9137;50.960;3.118;2022-07-29T06:51:27;17.30;95.50
18024;DHT22;9137;50.960;3.118;2022-07-29T06:53:54;17.30;95.00
18024;DHT22;9137;50.960;3.118;2022-07-29T06:56:22;17.40;94.90
18024;DHT22;9137;50.960;3.118;2022-07-29T06:58:49;17.50;94.90
18024;DHT22;9137;50.960;3.118;2022-07-29T07:01:16;17.50;94.50
18024;DHT22;9137;50.960;3.118;2022-07-29T07:03:43;17.60;95.10
18024;DHT22;9137;50.960;3.118;2022-07-29T07:06:12;17.70;94.20
18024;DHT22;9137;50.960;3.118;2022-07-29T07:08:38;17.80;94.30
18024;DHT22;9137;50.960;3.118;2022-07-29T07:11:05;17.90;93.70
18024;DHT22;9137;50.960;3.118;2022-07-29T07:13:32;18.00;93.50
18024;DHT22;9137;50.960;3.118;2022-07-29T07:16:00;18.00;93.50
18024;DHT22;9137;50.960;3.118;2022-07-29T07:18:27;18.10;93.10
18024;DHT22;9137;50.960;3.118;2022-07-29T07:20:55;18.20;92.90
18024;DHT22;9137;50.960;3.118;2022-07-29T07:23:23;18.30;92.80
18024;DHT22;9137;50.960;3.118;2022-07-29T07:25:50;18.40;92.60
18024;DHT22;9137;50.960;3.118;2022-07-29T07:28:18;18.50;92.10
18024;DHT22;9137;50.960;3.118;2022-07-29T07:30:45;18.60;91.80
18024;DHT22;9137;50.960;3.118;2022-07-29T07:33:11;18.70;91.70
18024;DHT22;9137;50.960;3.118;2022-07-29T07:35:38;18.80;91.70
18024;DHT22;9137;50.960;3.118;2022-07-29T07:38:05;18.90;91.10
18024;DHT22;9137;50.960;3.118;2022-07-29T07:40:34;19.00;91.20
18024;DHT22;9137;50.960;3.118;2022-07-29T07:43:01;19.20;90.90
18024;DHT22;9137;50.960;3.118;2022-07-29T07:45:28;19.30;90.30
18024;DHT22;9137;50.960;3.118;2022-07-29T07:47:55;19.40;90.00
18024;DHT22;9137;50.960;3.118;2022-07-29T07:50:22;19.50;89.30
18024;DHT22;9137;50.960;3.118;2022-07-29T07:52:51;19.60;88.90
18024;DHT22;9137;50.960;3.118;2022-07-29T07:55:18;19.60;87.30
18024;DHT22;9137;50.960;3.118;2022-07-29T07:57:46;19.80;88.80
18024;DHT22;9137;50.960;3.118;2022-07-29T08:00:14;20.00;87.60
18024;DHT22;9137;50.960;3.118;2022-07-29T08:02:42;20.20;87.00
18024;DHT22;9137;50.960;3.118;2022-07-29T08:05:11;20.30;86.10
18024;DHT22;9137;50.960;3.118;2022-07-29T08:07:42;20.40;86.70
18024;DHT22;9137;50.960;3.118;2022-07-29T08:10:09;20.60;81.60
18024;DHT22;9137;50.960;3.118;2022-07-29T08:12:36;20.70;82.00
18024;DHT22;9137;50.960;3.118;2022-07-29T08:15:06;20.80;82.90
18024;DHT22;9137;50.960;3.118;2022-07-29T08:17:33;21.00;80.90
18024;DHT22;9137;50.960;3.118;2022-07-29T08:20:00;21.20;81.70
18024;DHT22;9137;50.960;3.118;2022-07-29T08:22:27;21.60;82.60
18024;DHT22;9137;50.960;3.118;2022-07-29T08:24:54;22.00;76.20
18024;DHT22;9137;50.960;3.118;2022-07-29T08:27:21;22.40;76.20
18024;DHT22;9137;50.960;3.118;2022-07-29T08:29:48;22.70;72.10
18024;DHT22;9137;50.960;3.118;2022-07-29T08:32:17;22.80;68.30
18024;DHT22;9137;50.960;3.118;2022-07-29T08:34:44;23.10;70.90
18024;DHT22;9137;50.960;3.118;2022-07-29T08:37:12;23.50;67.20
18024;DHT22;9137;50.960;3.118;2022-07-29T08:39:41;23.70;65.00
18024;DHT22;9137;50.960;3.118;2022-07-29T08:42:08;23.90;64.20
18024;DHT22;9137;50.960;3.118;2022-07-29T08:44:42;24.40;63.30
18024;DHT22;9137;50.960;3.118;2022-07-29T08:47:10;24.80;62.40
18024;DHT22;9137;50.960;3.118;2022-07-29T08:49:41;25.10;58.50
18024;DHT22;9137;50.960;3.118;2022-07-29T08:52:10;25.30;58.20
18024;DHT22;9137;50.960;3.118;2022-07-29T08:54:37;25.60;56.90
18024;DHT22;9137;50.960;3.118;2022-07-29T08:57:05;25.90;56.20
18024;DHT22;9137;50.960;3.118;2022-07-29T08:59:34;26.10;56.20
18024;DHT22;9137;50.960;3.118;2022-07-29T09:02:01;26.50;54.80
18024;DHT22;9137;50.960;3.118;2022-07-29T09:04:33;26.80;52.90
18024;DHT22;9137;50.960;3.118;2022-07-29T09:07:04;26.80;51.90
18024;DHT22;9137;50.960;3.118;2022-07-29T09:09:31;26.80;50.00
18024;DHT22;9137;50.960;3.118;2022-07-29T09:12:01;26.60;52.40
18024;DHT22;9137;50.960;3.118;2022-07-29T09:14:29;26.80;50.80
18024;DHT22;9137;50.960;3.118;2022-07-29T09:16:56;26.80;49.90
18024;DHT22;9137;50.960;3.118;2022-07-29T09:19:26;26.90;49.10
18024;DHT22;9137;50.960;3.118;2022-07-29T09:21:55;26.60;48.10
18024;DHT22;9137;50.960;3.118;2022-07-29T09:24:41;26.30;49.70
18024;DHT22;9137;50.960;3.118;2022-07-29T09:27:10;25.80;51.00
18024;DHT22;9137;50.960;3.118;2022-07-29T09:29:37;25.40;51.20
18024;DHT22;9137;50.960;3.118;2022-07-29T09:32:08;25.30;52.50
18024;DHT22;9137;50.960;3.118;2022-07-29T09:34:35;25.30;54.10
18024;DHT22;9137;50.960;3.118;2022-07-29T09:37:02;25.30;52.50
18024;DHT22;9137;50.960;3.118;2022-07-29T09:39:33;25.60;52.30
18024;DHT22;9137;50.960;3.118;2022-07-29T09:42:03;25.90;51.00
18024;DHT22;9137;50.960;3.118;2022-07-29T09:44:47;26.30;50.60
18024;DHT22;9137;50.960;3.118;2022-07-29T09:47:15;26.80;50.70
18024;DHT22;9137;50.960;3.118;2022-07-29T09:50:00;27.20;48.20
18024;DHT22;9137;50.960;3.118;2022-07-29T09:52:29;27.50;48.10
18024;DHT22;9137;50.960;3.118;2022-07-29T09:55:04;27.80;47.40
18024;DHT22;9137;50.960;3.118;2022-07-29T09:57:32;28.10;43.90
18024;DHT22;9137;50.960;3.118;2022-07-29T10:00:03;28.10;45.70
18024;DHT22;9137;50.960;3.118;2022-07-29T10:02:32;28.20;46.60
18024;DHT22;9137;50.960;3.118;2022-07-29T10:05:00;28.40;45.90
18024;DHT22;9137;50.960;3.118;2022-07-29T10:07:43;28.70;43.90
18024;DHT22;9137;50.960;3.118;2022-07-29T10:10:10;28.70;44.00
18024;DHT22;9137;50.960;3.118;2022-07-29T10:12:51;29.10;41.30
18024;DHT22;9137;50.960;3.118;2022-07-29T10:15:18;28.90;41.50
18024;DHT22;9137;50.960;3.118;2022-07-29T10:17:47;29.10;41.00
18024;DHT22;9137;50.960;3.118;2022-07-29T10:20:15;29.20;40.60
18024;DHT22;9137;50.960;3.118;2022-07-29T10:22:42;29.30;40.30
18024;DHT22;9137;50.960;3.118;2022-07-29T10:25:10;29.30;40.10
18024;DHT22;9137;50.960;3.118;2022-07-29T10:27:37;28.90;40.10
18024;DHT22;9137;50.960;3.118;2022-07-29T10:30:07;28.80;43.10
18024;DHT22;9137;50.960;3.118;2022-07-29T10:32:57;28.80;43.30
18024;DHT22;9137;50.960;3.118;2022-07-29T10:38:30;29.50;39.10
18024;DHT22;9137;50.960;3.118;2022-07-29T10:41:23;29.80;40.20
18024;DHT22;9137;50.960;3.118;2022-07-29T10:43:59;30.10;40.20
18024;DHT22;9137;50.960;3.118;2022-07-29T10:46:29;30.20;38.30
18024;DHT22;9137;50.960;3.118;2022-07-29T10:49:08;30.40;38.90
18024;DHT22;9137;50.960;3.118;2022-07-29T10:51:54;30.30;37.50
18024;DHT22;9137;50.960;3.118;2022-07-29T10:54:45;30.20;37.90
18024;DHT22;9137;50.960;3.118;2022-07-29T10:57:27;30.10;38.40
18024;DHT22;9137;50.960;3.118;2022-07-29T11:00:27;29.80;37.90
18024;DHT22;9137;50.960;3.118;2022-07-29T11:02:55;29.20;37.70
18024;DHT22;9137;50.960;3.118;2022-07-29T11:05:23;29.00;39.80
18024;DHT22;9137;50.960;3.118;2022-07-29T11:08:17;29.30;39.00
18024;DHT22;9137;50.960;3.118;2022-07-29T11:10:45;29.60;39.80
18024;DHT22;9137;50.960;3.118;2022-07-29T11:13:12;30.10;39.60
18024;DHT22;9137;50.960;3.118;2022-07-29T11:15:52;30.50;38.30
18024;DHT22;9137;50.960;3.118;2022-07-29T11:18:21;30.70;37.00
18024;DHT22;9137;50.960;3.118;2022-07-29T11:20:49;30.60;37.20
18024;DHT22;9137;50.960;3.118;2022-07-29T11:23:25;30.20;37.30
18024;DHT22;9137;50.960;3.118;2022-07-29T11:26:18;29.80;38.30
18024;DHT22;9137;50.960;3.118;2022-07-29T11:28:52;29.60;38.60
18024;DHT22;9137;50.960;3.118;2022-07-29T11:31:32;29.40;40.60
18024;DHT22;9137;50.960;3.118;2022-07-29T11:34:19;29.60;40.10
18024;DHT22;9137;50.960;3.118;2022-07-29T11:37:18;29.30;39.00
18024;DHT22;9137;50.960;3.118;2022-07-29T11:39:46;29.30;40.80
18024;DHT22;9137;50.960;3.118;2022-07-29T11:42:38;29.60;39.10
18024;DHT22;9137;50.960;3.118;2022-07-29T11:45:07;29.50;39.60
18024;DHT22;9137;50.960;3.118;2022-07-29T11:47:37;29.30;39.20
18024;DHT22;9137;50.960;3.118;2022-07-29T11:50:08;29.00;40.60
18024;DHT22;9137;50.960;3.118;2022-07-29T11:52:37;29.20;40.90
18024;DHT22;9137;50.960;3.118;2022-07-29T11:55:09;29.60;40.30
18024;DHT22;9137;50.960;3.118;2022-07-29T11:57:44;29.90;39.30
18024;DHT22;9137;50.960;3.118;2022-07-29T12:00:12;29.90;38.90
18024;DHT22;9137;50.960;3.118;2022-07-29T12:02:47;29.40;39.80
18024;DHT22;9137;50.960;3.118;2022-07-29T12:05:16;29.10;41.20
18024;DHT22;9137;50.960;3.118;2022-07-29T12:07:43;28.70;41.30
18024;DHT22;9137;50.960;3.118;2022-07-29T12:10:10;28.90;42.80
18024;DHT22;9137;50.960;3.118;2022-07-29T12:12:37;28.90;41.90
18024;DHT22;9137;50.960;3.118;2022-07-29T12:15:14;29.00;42.00
18024;DHT22;9137;50.960;3.118;2022-07-29T12:17:43;29.30;41.50
18024;DHT22;9137;50.960;3.118;2022-07-29T12:20:10;29.80;41.00
18024;DHT22;9137;50.960;3.118;2022-07-29T12:22:40;30.20;39.20
18024;DHT22;9137;50.960;3.118;2022-07-29T12:25:11;30.30;38.30
18024;DHT22;9137;50.960;3.118;2022-07-29T12:27:41;30.60;37.20
18024;DHT22;9137;50.960;3.118;2022-07-29T12:30:10;30.30;37.80
18024;DHT22;9137;50.960;3.118;2022-07-29T12:32:38;30.20;39.30
18024;DHT22;9137;50.960;3.118;2022-07-29T12:35:07;30.20;38.60
18024;DHT22;9137;50.960;3.118;2022-07-29T12:37:37;30.40;39.50
18024;DHT22;9137;50.960;3.118;2022-07-29T12:40:07;30.60;38.30
18024;DHT22;9137;50.960;3.118;2022-07-29T12:42:34;30.80;38.90
18024;DHT22;9137;50.960;3.118;2022-07-29T12:45:02;31.00;39.20
18024;DHT22;9137;50.960;3.118;2022-07-29T12:47:30;30.50;38.10
18024;DHT22;9137;50.960;3.118;2022-07-29T12:50:10;30.20;39.10
18024;DHT22;9137;50.960;3.118;2022-07-29T12:52:37;30.40;39.20
18024;DHT22;9137;50.960;3.118;2022-07-29T12:55:06;30.60;38.00
18024;DHT22;9137;50.960;3.118;2022-07-29T12:57:45;31.10;38.80
18024;DHT22;9137;50.960;3.118;2022-07-29T13:00:13;31.00;37.20
18024;DHT22;9137;50.960;3.118;2022-07-29T13:02:42;31.20;36.40
18024;DHT22;9137;50.960;3.118;2022-07-29T13:05:10;31.00;36.10
18024;DHT22;9137;50.960;3.118;2022-07-29T13:07:38;31.20;35.70
18024;DHT22;9137;50.960;3.118;2022-07-29T13:10:15;31.40;36.00
18024;DHT22;9137;50.960;3.118;2022-07-29T13:13:01;31.60;36.20
18024;DHT22;9137;50.960;3.118;2022-07-29T13:15:28;31.80;36.30
18024;DHT22;9137;50.960;3.118;2022-07-29T13:17:55;32.00;35.30
18024;DHT22;9137;50.960;3.118;2022-07-29T13:20:24;31.60;35.90
18024;DHT22;9137;50.960;3.118;2022-07-29T13:22:53;31.60;35.10
18024;DHT22;9137;50.960;3.118;2022-07-29T13:25:27;31.60;34.80
18024;DHT22;9137;50.960;3.118;2022-07-29T13:27:54;31.30;35.10
18024;DHT22;9137;50.960;3.118;2022-07-29T13:30:22;31.20;37.20
18024;DHT22;9137;50.960;3.118;2022-07-29T13:32:50;31.40;37.10
18024;DHT22;9137;50.960;3.118;2022-07-29T13:35:18;31.50;35.10
18024;DHT22;9137;50.960;3.118;2022-07-29T13:37:45;31.30;36.20
18024;DHT22;9137;50.960;3.118;2022-07-29T13:40:12;31.40;36.20
18024;DHT22;9137;50.960;3.118;2022-07-29T13:42:42;31.40;35.80
18024;DHT22;9137;50.960;3.118;2022-07-29T13:45:09;31.70;35.50
18024;DHT22;9137;50.960;3.118;2022-07-29T13:47:37;31.50;34.70
18024;DHT22;9137;50.960;3.118;2022-07-29T13:50:06;31.50;35.00
18024;DHT22;9137;50.960;3.118;2022-07-29T13:52:36;31.40;35.00
18024;DHT22;9137;50.960;3.118;2022-07-29T13:55:04;31.50;34.50
18024;DHT22;9137;50.960;3.118;2022-07-29T13:57:31;31.10;35.50
18024;DHT22;9137;50.960;3.118;2022-07-29T13:59:59;31.10;35.40
18024;DHT22;9137;50.960;3.118;2022-07-29T14:02:26;31.00;36.70
18024;DHT22;9137;50.960;3.118;2022-07-29T14:04:53;31.00;35.90
18024;DHT22;9137;50.960;3.118;2022-07-29T14:07:20;31.30;36.60
18024;DHT22;9137;50.960;3.118;2022-07-29T14:09:47;31.60;34.60
18024;DHT22;9137;50.960;3.118;2022-07-29T14:12:14;31.50;34.70
18024;DHT22;9137;50.960;3.118;2022-07-29T14:14:41;30.60;35.30
18024;DHT22;9137;50.960;3.118;2022-07-29T14:17:09;30.20;36.50
18024;DHT22;9137;50.960;3.118;2022-07-29T14:19:36;30.50;36.70
18024;DHT22;9137;50.960;3.118;2022-07-29T14:22:03;30.80;37.10
18024;DHT22;9137;50.960;3.118;2022-07-29T14:24:30;31.20;36.00
18024;DHT22;9137;50.960;3.118;2022-07-29T14:26:57;31.30;35.40
18024;DHT22;9137;50.960;3.118;2022-07-29T14:29:24;31.40;35.00
18024;DHT22;9137;50.960;3.118;2022-07-29T14:31:51;31.30;34.80
18024;DHT22;9137;50.960;3.118;2022-07-29T14:34:19;30.70;35.80
18024;DHT22;9137;50.960;3.118;2022-07-29T14:36:46;30.50;37.60
18024;DHT22;9137;50.960;3.118;2022-07-29T14:39:13;30.50;38.80
18024;DHT22;9137;50.960;3.118;2022-07-29T14:41:41;30.60;38.80
18024;DHT22;9137;50.960;3.118;2022-07-29T14:44:08;30.70;36.80
18024;DHT22;9137;50.960;3.118;2022-07-29T14:46:35;30.70;36.70
18024;DHT22;9137;50.960;3.118;2022-07-29T14:49:02;31.00;36.60
18024;DHT22;9137;50.960;3.118;2022-07-29T14:51:30;30.80;37.10
18024;DHT22;9137;50.960;3.118;2022-07-29T14:53:57;30.60;37.40
18024;DHT22;9137;50.960;3.118;2022-07-29T14:56:24;30.50;37.70
18024;DHT22;9137;50.960;3.118;2022-07-29T14:58:51;29.90;37.90
18024;DHT22;9137;50.960;3.118;2022-07-29T15:01:18;30.10;37.70
18024;DHT22;9137;50.960;3.118;2022-07-29T15:03:44;30.00;38.20
18024;DHT22;9137;50.960;3.118;2022-07-29T15:06:11;30.20;38.40
18024;DHT22;9137;50.960;3.118;2022-07-29T15:08:40;30.40;37.50
18024;DHT22;9137;50.960;3.118;2022-07-29T15:11:06;30.50;37.00
18024;DHT22;9137;50.960;3.118;2022-07-29T15:13:34;30.10;37.90
18024;DHT22;9137;50.960;3.118;2022-07-29T15:16:00;30.20;38.80
18024;DHT22;9137;50.960;3.118;2022-07-29T15:18:27;29.80;39.10
18024;DHT22;9137;50.960;3.118;2022-07-29T15:20:54;29.90;40.30
18024;DHT22;9137;50.960;3.118;2022-07-29T15:23:21;30.10;39.60
18024;DHT22;9137;50.960;3.118;2022-07-29T15:25:49;30.10;37.40
18024;DHT22;9137;50.960;3.118;2022-07-29T15:28:16;29.80;37.40
18024;DHT22;9137;50.960;3.118;2022-07-29T15:30:43;29.80;38.50
18024;DHT22;9137;50.960;3.118;2022-07-29T15:33:10;30.00;39.60
18024;DHT22;9137;50.960;3.118;2022-07-29T15:35:37;29.70;38.50
18024;DHT22;9137;50.960;3.118;2022-07-29T15:38:04;29.70;39.60
18024;DHT22;9137;50.960;3.118;2022-07-29T15:40:31;29.70;37.00
18024;DHT22;9137;50.960;3.118;2022-07-29T15:43:04;29.70;37.00
18024;DHT22;9137;50.960;3.118;2022-07-29T15:45:35;29.70;35.90
18024;DHT22;9137;50.960;3.118;2022-07-29T15:48:05;29.60;36.30
18024;DHT22;9137;50.960;3.118;2022-07-29T15:50:32;29.40;36.90
18024;DHT22;9137;50.960;3.118;2022-07-29T15:53:00;29.40;38.40
18024;DHT22;9137;50.960;3.118;2022-07-29T15:55:27;29.40;37.90
18024;DHT22;9137;50.960;3.118;2022-07-29T15:57:54;29.30;37.50
18024;DHT22;9137;50.960;3.118;2022-07-29T16:00:22;29.40;38.50
18024;DHT22;9137;50.960;3.118;2022-07-29T16:02:49;29.50;36.70